createdAt,value
2022-11-13T00:01:20.156Z,22.77
2022-11-13T00:03:49.634Z,24.40
2022-11-13T00:06:17.897Z,22.60
2022-11-13T00:08:45.353Z,22.93
2022-11-13T00:11:18.576Z,23.70
2022-11-13T00:13:46.595Z,24.17
2022-11-13T00:16:17.225Z,22.00
2022-11-13T00:18:44.837Z,22.73
2022-11-13T00:21:14.213Z,22.50
2022-11-13T00:23:42.814Z,22.67
2022-11-13T00:26:13.553Z,21.63
2022-11-13T00:28:41.318Z,22.47
2022-11-13T00:31:10.825Z,21.73
2022-11-13T00:36:29.410Z,21.43
2022-11-13T00:38:56.979Z,20.83
2022-11-13T00:41:24.743Z,21.30
2022-11-13T00:43:52.395Z,20.93
2022-11-13T00:46:19.976Z,21.20
2022-11-13T00:48:47.074Z,21.43
2022-11-13T00:51:14.589Z,21.03
2022-11-13T00:53:41.953Z,20.97
2022-11-13T00:56:08.948Z,20.07
2022-11-13T00:58:36.375Z,19.43
2022-11-13T01:01:12.005Z,19.27
2022-11-13T01:03:39.756Z,20.63
2022-11-13T01:06:10.905Z,20.53
2022-11-13T01:08:38.085Z,20.07
2022-11-13T01:11:21.427Z,20.33
2022-11-13T01:13:50.429Z,21.43
2022-11-13T01:16:19.537Z,20.70
2022-11-13T01:18:46.854Z,20.30
2022-11-13T01:21:17.852Z,20.13
2022-11-13T01:23:45.187Z,20.47
2022-11-13T01:26:22.297Z,20.73
2022-11-13T01:28:49.569Z,19.97
2022-11-13T01:31:19.829Z,18.77
2022-11-13T01:33:48.223Z,21.07
2022-11-13T01:36:24.957Z,20.90
2022-11-13T01:38:52.304Z,18.90
2022-11-13T01:41:38.298Z,21.03
2022-11-13T01:44:11.548Z,19.37
2022-11-13T01:46:42.892Z,19.37
2022-11-13T01:49:09.839Z,20.30
2022-11-13T01:51:58.996Z,18.83
2022-11-13T01:54:32.886Z,19.77
2022-11-13T01:57:01.502Z,20.07
2022-11-13T01:59:34.485Z,18.73
2022-11-13T02:02:02.005Z,19.10
2022-11-13T02:04:30.763Z,18.73
2022-11-13T02:07:04.631Z,19.13
2022-11-13T02:09:40.365Z,20.43
2022-11-13T02:12:12.104Z,20.20
2022-11-13T02:14:43.652Z,18.57
2022-11-13T02:17:15.753Z,18.30
2022-11-13T02:19:48.461Z,17.70
2022-11-13T02:22:31.231Z,18.13
2022-11-13T02:25:02.028Z,17.90
2022-11-13T02:27:38.441Z,19.57
2022-11-13T02:30:26.516Z,19.13
2022-11-13T02:32:55.730Z,17.70
2022-11-13T02:35:33.199Z,18.30
2022-11-13T02:38:03.644Z,18.07
2022-11-13T02:40:32.707Z,18.07
2022-11-13T02:43:00.987Z,17.73
2022-11-13T02:45:28.385Z,18.03
2022-11-13T02:47:55.536Z,19.13
2022-11-13T02:50:22.977Z,18.43
2022-11-13T02:52:50.613Z,18.07
2022-11-13T02:55:19.357Z,18.77
2022-11-13T02:57:46.828Z,18.23
2022-11-13T03:00:14.620Z,17.90
2022-11-13T03:02:41.744Z,18.23
2022-11-13T03:05:12.499Z,16.80
2022-11-13T03:07:41.572Z,18.23
2022-11-13T03:10:10.481Z,18.07
2022-11-13T03:12:37.874Z,18.50
2022-11-13T03:15:07.002Z,19.37
2022-11-13T03:17:36.056Z,18.63
2022-11-13T03:20:03.917Z,18.97
2022-11-13T03:22:31.356Z,17.90
2022-11-13T03:24:58.487Z,17.90
2022-11-13T03:27:25.776Z,19.77
2022-11-13T03:29:52.875Z,18.70
2022-11-13T03:32:19.852Z,19.30
2022-11-13T03:34:47.304Z,18.00
2022-11-13T03:37:14.402Z,19.00
2022-11-13T03:39:44.984Z,17.73
2022-11-13T03:42:12.705Z,17.77
2022-11-13T03:44:39.689Z,18.53
2022-11-13T03:47:07.066Z,18.10
2022-11-13T03:49:34.469Z,18.43
2022-11-13T03:52:01.629Z,17.57
2022-11-13T03:54:28.740Z,18.93
2022-11-13T03:56:56.263Z,18.93
2022-11-13T03:59:23.307Z,18.37
2022-11-13T04:01:51.011Z,16.90
2022-11-13T04:04:18.199Z,18.13
2022-11-13T04:06:45.337Z,17.97
2022-11-13T04:09:13.516Z,16.73
2022-11-13T04:11:40.522Z,17.93
2022-11-13T04:14:07.941Z,16.87
2022-11-13T04:16:34.999Z,15.73
2022-11-13T04:19:02.305Z,16.33
2022-11-13T04:21:30.876Z,16.57
2022-11-13T04:23:57.957Z,16.83
2022-11-13T04:26:25.110Z,15.57
2022-11-13T04:28:52.479Z,15.03
2022-11-13T04:31:19.484Z,15.40
2022-11-13T04:33:46.584Z,14.73
2022-11-13T04:36:14.103Z,15.00
2022-11-13T04:38:42.105Z,14.60
2022-11-13T04:41:28.663Z,14.53
2022-11-13T04:43:56.091Z,14.60
2022-11-13T04:46:23.133Z,14.10
2022-11-13T04:48:50.414Z,14.00
2022-11-13T04:51:17.628Z,14.07
2022-11-13T04:53:44.827Z,13.70
2022-11-13T04:56:12.293Z,13.77
2022-11-13T04:58:39.312Z,14.93
2022-11-13T05:01:06.659Z,14.43
2022-11-13T05:03:33.708Z,14.40
2022-11-13T05:06:09.099Z,15.13
2022-11-13T05:08:37.051Z,14.87
2022-11-13T05:11:04.662Z,15.47
2022-11-13T05:13:34.159Z,15.37
2022-11-13T05:16:07.132Z,13.20
2022-11-13T05:18:36.577Z,14.77
2022-11-13T05:21:06.019Z,14.93
2022-11-13T05:23:33.647Z,14.27
2022-11-13T05:26:09.491Z,13.30
2022-11-13T05:28:37.407Z,15.30
2022-11-13T05:31:10.500Z,15.20
2022-11-13T05:33:38.911Z,14.70
2022-11-13T05:36:14.713Z,14.57
2022-11-13T05:38:44.132Z,14.60
2022-11-13T05:41:13.388Z,15.27
2022-11-13T05:43:41.137Z,14.73
2022-11-13T05:46:09.797Z,15.47
2022-11-13T05:48:37.475Z,14.03
2022-11-13T05:51:11.590Z,15.23
2022-11-13T05:53:39.521Z,14.37
2022-11-13T05:56:22.191Z,13.87
2022-11-13T05:58:50.559Z,13.37
2022-11-13T06:01:32.683Z,15.53
2022-11-13T06:04:00.944Z,14.37
2022-11-13T06:06:30.159Z,14.43
2022-11-13T06:08:59.204Z,14.47
2022-11-13T06:11:28.463Z,12.67
2022-11-13T06:13:58.055Z,14.37
2022-11-13T06:16:33.760Z,14.20
2022-11-13T06:19:04.128Z,14.63
2022-11-13T06:21:32.847Z,14.57
2022-11-13T06:24:01.419Z,14.40
2022-11-13T06:26:32.142Z,14.03
2022-11-13T06:29:00.898Z,14.27
2022-11-13T06:31:30.663Z,14.47
2022-11-13T06:33:59.452Z,14.00
2022-11-13T06:36:29.296Z,13.30
2022-11-13T06:38:57.260Z,14.80
2022-11-13T06:41:27.466Z,15.20
2022-11-13T06:43:58.512Z,14.63
2022-11-13T06:46:29.977Z,14.43
2022-11-13T06:48:57.566Z,15.67
2022-11-13T06:51:27.695Z,14.93
2022-11-13T06:53:55.368Z,16.47
2022-11-13T06:56:22.592Z,14.83
2022-11-13T06:58:50.071Z,16.43
2022-11-13T07:01:22.269Z,16.87
2022-11-13T07:03:49.707Z,14.93
2022-11-13T07:06:22.541Z,15.37
2022-11-13T07:08:50.250Z,15.43
2022-11-13T07:11:21.464Z,14.20
2022-11-13T07:13:48.633Z,13.63
2022-11-13T07:16:18.175Z,14.73
2022-11-13T07:18:53.461Z,15.53
2022-11-13T07:21:21.848Z,16.10
2022-11-13T07:23:50.329Z,14.60
2022-11-13T07:26:17.911Z,15.97
2022-11-13T07:28:45.571Z,14.27
2022-11-13T07:31:14.616Z,17.13
2022-11-13T07:33:42.278Z,16.23
2022-11-13T07:36:10.559Z,16.30
2022-11-13T07:38:37.868Z,15.27
2022-11-13T07:41:06.108Z,15.43
2022-11-13T07:43:34.404Z,15.47
2022-11-13T07:46:03.527Z,15.10
2022-11-13T07:48:31.062Z,15.90
2022-11-13T07:51:03.305Z,14.97
2022-11-13T07:53:30.958Z,14.37
2022-11-13T07:56:01.843Z,15.43
2022-11-13T07:58:29.373Z,14.57
2022-11-13T08:01:03.222Z,15.37
2022-11-13T08:03:30.618Z,13.90
2022-11-13T08:06:03.627Z,13.63
2022-11-13T08:08:31.343Z,12.30
2022-11-13T08:10:59.242Z,11.97
2022-11-13T08:13:27.683Z,11.10
2022-11-13T08:15:59.457Z,12.40
2022-11-13T08:18:28.663Z,12.30
2022-11-13T08:20:56.366Z,10.83
2022-11-13T08:23:23.655Z,12.00
2022-11-13T08:25:51.015Z,11.23
2022-11-13T08:28:18.552Z,11.90
2022-11-13T08:30:46.820Z,10.23
2022-11-13T08:33:13.913Z,11.80
2022-11-13T08:35:41.434Z,11.60
2022-11-13T08:38:09.610Z,10.60
2022-11-13T08:40:37.227Z,11.00
2022-11-13T08:43:05.134Z,9.60
2022-11-13T08:45:32.731Z,9.30
2022-11-13T08:48:04.076Z,9.63
2022-11-13T08:50:34.408Z,8.93
2022-11-13T08:53:01.780Z,8.60
2022-11-13T08:55:29.423Z,8.40
2022-11-13T08:58:00.112Z,8.33
2022-11-13T09:00:35.136Z,7.27
2022-11-13T09:03:03.963Z,6.73
2022-11-13T09:05:31.631Z,6.70
2022-11-13T09:08:01.142Z,6.77
2022-11-13T09:10:28.684Z,7.33
2022-11-13T09:13:05.090Z,6.83
2022-11-13T09:15:33.835Z,7.07
2022-11-13T09:18:02.940Z,6.77
2022-11-13T09:20:31.583Z,6.03
2022-11-13T09:23:05.322Z,6.93
2022-11-13T09:25:37.484Z,6.57
2022-11-13T09:28:06.386Z,7.50
2022-11-13T09:30:33.873Z,7.40
2022-11-13T09:33:01.992Z,6.70
2022-11-13T09:35:36.825Z,6.47
2022-11-13T09:38:11.076Z,6.40
2022-11-13T09:40:58.868Z,6.33
2022-11-13T09:43:35.369Z,7.03
2022-11-13T09:46:11.564Z,7.13
2022-11-13T09:48:42.917Z,6.60
2022-11-13T09:51:21.756Z,6.27
2022-11-13T09:53:49.646Z,6.40
2022-11-13T09:56:32.442Z,6.37
2022-11-13T09:59:15.583Z,7.53
2022-11-13T10:01:51.763Z,7.97
2022-11-13T10:04:32.495Z,7.80
2022-11-13T10:07:13.632Z,7.60
2022-11-13T10:10:00.026Z,7.47
2022-11-13T10:12:30.320Z,6.53
2022-11-13T10:15:02.261Z,7.10
2022-11-13T10:17:38.967Z,7.17
2022-11-13T10:20:21.794Z,7.60
2022-11-13T10:22:55.998Z,7.67
2022-11-13T10:25:31.316Z,7.70
2022-11-13T10:28:11.372Z,7.43
2022-11-13T10:30:50.815Z,8.23
2022-11-13T10:33:21.159Z,8.37
2022-11-13T10:35:59.029Z,7.77
2022-11-13T10:38:33.767Z,8.07
2022-11-13T10:41:12.584Z,7.53
2022-11-13T10:43:55.975Z,7.87
2022-11-13T10:46:25.945Z,7.30
2022-11-13T10:48:53.188Z,7.70
2022-11-13T10:51:29.881Z,8.10
2022-11-13T10:53:59.120Z,8.73
2022-11-13T10:56:31.762Z,10.07
2022-11-13T10:59:16.681Z,11.43
2022-11-13T11:01:45.610Z,9.50
2022-11-13T11:04:30.163Z,8.83
2022-11-13T11:07:20.246Z,7.80
2022-11-13T11:09:50.826Z,9.40
2022-11-13T11:12:20.551Z,7.40
2022-11-13T11:15:00.558Z,8.27
2022-11-13T11:17:54.742Z,8.03
2022-11-13T11:20:40.676Z,8.47
2022-11-13T11:23:19.616Z,8.27
2022-11-13T11:26:00.932Z,8.03
2022-11-13T11:28:45.114Z,8.47
2022-11-13T11:31:35.866Z,8.10
2022-11-13T11:34:18.104Z,8.40
2022-11-13T11:36:51.241Z,8.27
2022-11-13T11:39:39.915Z,7.33
2022-11-13T11:42:15.652Z,8.20
2022-11-13T11:44:48.892Z,8.30
2022-11-13T11:47:17.839Z,8.83
2022-11-13T11:49:45.331Z,8.40
2022-11-13T11:52:24.261Z,7.50
2022-11-13T11:55:30.323Z,7.93
2022-11-13T11:58:06.817Z,9.10
2022-11-13T12:00:39.984Z,8.53
2022-11-13T12:03:19.236Z,7.77
2022-11-13T12:05:46.321Z,9.10
2022-11-13T12:08:22.790Z,9.40
2022-11-13T12:11:07.971Z,8.87
2022-11-13T12:14:00.838Z,8.80
2022-11-13T12:16:32.368Z,9.17
2022-11-13T12:19:08.410Z,9.80
2022-11-13T12:21:35.344Z,9.27
2022-11-13T12:24:17.197Z,9.27
2022-11-13T12:27:08.807Z,9.40
2022-11-13T12:29:36.231Z,9.80
2022-11-13T12:32:22.265Z,9.40
2022-11-13T12:35:11.708Z,9.50
2022-11-13T12:38:03.506Z,9.43
2022-11-13T12:40:53.777Z,9.80
2022-11-13T12:43:35.625Z,9.47
2022-11-13T12:46:13.436Z,8.13
2022-11-13T12:48:46.967Z,9.40
2022-11-13T12:51:18.854Z,9.70
2022-11-13T12:53:52.282Z,9.73
2022-11-13T12:56:26.508Z,8.73
2022-11-13T12:59:31.334Z,8.20
2022-11-13T13:02:08.601Z,9.07
2022-11-13T13:05:07.582Z,7.80
2022-11-13T13:07:46.096Z,7.53
2022-11-13T13:10:36.082Z,8.10
2022-11-13T13:13:48.761Z,8.40
2022-11-13T13:16:26.118Z,8.47
2022-11-13T13:19:05.257Z,9.10
2022-11-13T13:21:44.232Z,8.50
2022-11-13T13:24:36.777Z,9.23
2022-11-13T13:27:26.299Z,8.30
2022-11-13T13:29:53.676Z,8.43
2022-11-13T13:32:39.413Z,9.17
2022-11-13T13:35:56.288Z,7.87
2022-11-13T13:38:47.969Z,8.43
2022-11-13T13:41:21.271Z,8.80
2022-11-13T13:44:12.722Z,8.47
2022-11-13T13:46:42.117Z,8.90
2022-11-13T13:49:16.252Z,8.30
2022-11-13T13:51:54.846Z,9.73
2022-11-13T13:54:28.042Z,8.83
2022-11-13T13:56:58.030Z,8.73
2022-11-13T13:59:28.283Z,10.57
2022-11-13T14:02:00.629Z,10.53
2022-11-13T14:04:46.042Z,10.63
2022-11-13T14:07:30.444Z,11.73
2022-11-13T14:10:13.340Z,10.87
2022-11-13T14:12:45.662Z,11.60
2022-11-13T14:15:28.046Z,10.13
2022-11-13T14:18:29.211Z,10.60
2022-11-13T14:20:59.704Z,9.63
2022-11-13T14:23:37.817Z,10.27
2022-11-13T14:26:06.021Z,10.10
2022-11-13T14:28:43.228Z,10.40
2022-11-13T14:31:12.755Z,10.47
2022-11-13T14:33:49.032Z,10.97
2022-11-13T14:36:25.001Z,11.97
2022-11-13T14:38:53.652Z,10.87
2022-11-13T14:41:50.771Z,10.50
2022-11-13T14:44:32.325Z,10.50
2022-11-13T14:47:05.557Z,10.47
2022-11-13T14:49:35.689Z,10.07
2022-11-13T14:52:03.493Z,11.03
2022-11-13T14:55:14.099Z,11.13
2022-11-13T14:57:26.650Z,10.33
2022-11-13T14:59:54.189Z,11.20
2022-11-13T15:02:21.787Z,12.13
2022-11-13T15:04:49.108Z,11.57
2022-11-13T15:07:29.340Z,13.20
2022-11-13T15:09:58.235Z,11.93
2022-11-13T15:12:25.538Z,11.40
2022-11-13T15:14:54.013Z,11.77
2022-11-13T15:17:22.739Z,12.30
2022-11-13T15:19:53.820Z,12.63
2022-11-13T15:22:26.991Z,12.27
2022-11-13T15:24:55.173Z,11.20
2022-11-13T15:27:22.282Z,11.63
2022-11-13T15:29:49.809Z,11.47
2022-11-13T15:32:16.962Z,12.30
2022-11-13T15:34:44.374Z,11.80
2022-11-13T15:37:16.884Z,11.27
2022-11-13T15:39:44.458Z,12.17
2022-11-13T15:42:16.014Z,11.37
2022-11-13T15:44:43.794Z,10.70
2022-11-13T15:47:33.545Z,12.70
2022-11-13T15:50:17.033Z,11.20
2022-11-13T15:52:47.396Z,11.43
2022-11-13T15:55:28.925Z,11.27
2022-11-13T15:57:57.832Z,11.93
2022-11-13T16:00:27.359Z,13.20
2022-11-13T16:02:57.549Z,12.20
2022-11-13T16:05:29.657Z,12.07
2022-11-13T16:07:57.050Z,11.63
2022-11-13T16:10:25.466Z,12.83
2022-11-13T16:12:53.703Z,11.17
2022-11-13T16:15:22.555Z,12.53
2022-11-13T16:17:55.678Z,14.23
2022-11-13T16:20:23.276Z,13.13
2022-11-13T16:22:50.772Z,12.93
2022-11-13T16:25:21.081Z,13.47
2022-11-13T16:27:48.299Z,12.20
2022-11-13T16:30:23.421Z,14.40
2022-11-13T16:32:50.868Z,13.70
2022-11-13T16:35:19.903Z,13.37
2022-11-13T16:37:47.205Z,12.90
2022-11-13T16:40:20.674Z,14.40
2022-11-13T16:42:48.403Z,13.33
2022-11-13T16:45:16.952Z,14.63
2022-11-13T16:47:44.883Z,14.20
2022-11-13T16:50:18.228Z,15.10
2022-11-13T16:52:45.522Z,14.50
2022-11-13T16:55:16.101Z,14.60
2022-11-13T16:57:43.204Z,15.80
2022-11-13T17:00:16.290Z,16.40
2022-11-13T17:02:44.895Z,15.67
2022-11-13T17:05:17.272Z,16.23
2022-11-13T17:07:44.918Z,15.80
2022-11-13T17:10:32.410Z,17.10
2022-11-13T17:13:00.983Z,16.60
2022-11-13T17:15:28.736Z,18.33
2022-11-13T17:17:58.368Z,18.07
2022-11-13T17:20:26.064Z,18.30
2022-11-13T17:22:53.365Z,18.20
2022-11-13T17:25:23.355Z,19.77
2022-11-13T17:27:50.406Z,18.83
2022-11-13T17:30:18.990Z,17.03
2022-11-13T17:32:46.221Z,19.00
2022-11-13T17:35:13.837Z,19.43
2022-11-13T17:37:41.482Z,19.33
2022-11-13T17:40:10.659Z,17.90
2022-11-13T17:42:37.695Z,19.17
2022-11-13T17:45:05.779Z,19.57
2022-11-13T17:47:34.345Z,18.87
2022-11-13T17:50:07.135Z,19.43
2022-11-13T17:52:34.991Z,19.23
2022-11-13T17:55:06.261Z,19.47
2022-11-13T17:57:33.790Z,19.13
2022-11-13T18:00:01.305Z,19.10
2022-11-13T18:02:28.448Z,19.90
2022-11-13T18:04:59.143Z,20.20
2022-11-13T18:07:29.824Z,19.07
2022-11-13T18:09:57.433Z,20.07
2022-11-13T18:12:25.067Z,20.53
2022-11-13T18:14:52.916Z,21.37
2022-11-13T18:17:21.004Z,19.80
2022-11-13T18:19:49.111Z,20.27
2022-11-13T18:22:16.663Z,18.00
2022-11-13T18:24:44.516Z,18.60
2022-11-13T18:27:14.245Z,17.97
2022-11-13T18:29:41.728Z,17.73
2022-11-13T18:32:08.894Z,16.60
2022-11-13T18:34:36.401Z,17.77
2022-11-13T18:37:03.632Z,16.67
2022-11-13T18:39:31.129Z,16.43
2022-11-13T18:42:00.364Z,15.73
2022-11-13T18:44:27.755Z,16.33
2022-11-13T18:46:55.057Z,15.20
2022-11-13T18:49:23.142Z,15.57
2022-11-13T18:51:52.924Z,14.00
2022-11-13T18:54:20.597Z,14.90
2022-11-13T18:56:47.836Z,15.47
2022-11-13T18:59:15.263Z,15.40
2022-11-13T19:01:43.006Z,17.23
2022-11-13T19:04:27.919Z,15.27
2022-11-13T19:06:55.314Z,16.57
2022-11-13T19:09:23.069Z,15.20
2022-11-13T19:11:51.493Z,15.10
2022-11-13T19:14:19.244Z,16.33
2022-11-13T19:16:47.241Z,15.63
2022-11-13T19:19:20.898Z,15.70
2022-11-13T19:21:48.454Z,15.57
2022-11-13T19:24:17.215Z,16.03
2022-11-13T19:26:45.107Z,15.77
2022-11-13T19:29:13.760Z,16.17
2022-11-13T19:31:41.152Z,16.83
2022-11-13T19:34:09.929Z,15.83
2022-11-13T19:36:37.336Z,15.33
2022-11-13T19:39:05.360Z,16.77
2022-11-13T19:41:32.893Z,16.83
2022-11-13T19:44:00.501Z,15.83
2022-11-13T19:46:32.511Z,15.60
2022-11-13T19:49:00.090Z,15.60
2022-11-13T19:51:27.681Z,14.70
2022-11-13T19:53:57.997Z,16.20
2022-11-13T19:56:28.627Z,16.07
2022-11-13T19:58:56.792Z,15.17
2022-11-13T20:01:26.777Z,14.60
2022-11-13T20:03:59.627Z,14.60
2022-11-13T20:06:28.651Z,12.63
2022-11-13T20:08:58.283Z,13.00
2022-11-13T20:11:25.985Z,12.40
2022-11-13T20:13:53.984Z,11.67
2022-11-13T20:16:23.486Z,11.20
2022-11-13T20:18:51.082Z,12.17
2022-11-13T20:21:29.817Z,11.83
2022-11-13T20:23:58.878Z,12.27
2022-11-13T20:26:26.277Z,11.77
2022-11-13T20:28:53.980Z,11.00
2022-11-13T20:31:23.332Z,11.80
2022-11-13T20:33:55.143Z,10.53
2022-11-13T20:36:23.719Z,10.90
2022-11-13T20:38:55.655Z,8.87
2022-11-13T20:41:24.198Z,9.80
2022-11-13T20:43:52.591Z,10.00
2022-11-13T20:46:20.995Z,12.17
2022-11-13T20:48:48.756Z,11.10
2022-11-13T20:51:22.021Z,11.03
2022-11-13T20:53:49.600Z,11.30
2022-11-13T20:56:18.398Z,12.03
2022-11-13T20:58:45.869Z,11.53
2022-11-13T21:01:16.238Z,10.93
2022-11-13T21:03:45.432Z,10.17
2022-11-13T21:06:15.680Z,10.77
2022-11-13T21:08:43.598Z,10.60
2022-11-13T21:11:29.366Z,11.03
2022-11-13T21:13:57.605Z,9.97
2022-11-13T21:16:25.512Z,10.20
2022-11-13T21:18:52.892Z,10.53
2022-11-13T21:21:22.099Z,9.87
2022-11-13T21:23:49.303Z,9.23
2022-11-13T21:26:19.007Z,10.57
2022-11-13T21:28:46.944Z,9.43
2022-11-13T21:31:16.893Z,9.10
2022-11-13T21:33:45.560Z,10.23
2022-11-13T21:36:16.528Z,10.07
2022-11-13T21:38:43.954Z,9.57
2022-11-13T21:41:22.990Z,9.53
2022-11-13T21:44:04.939Z,9.87
2022-11-13T21:46:35.179Z,8.20
2022-11-13T21:49:10.220Z,8.63
2022-11-13T21:51:40.254Z,9.27
2022-11-13T21:54:08.800Z,10.10
2022-11-13T21:56:37.868Z,10.53
2022-11-13T21:59:08.231Z,10.40
2022-11-13T22:01:38.596Z,10.97
2022-11-13T22:04:06.782Z,10.97
2022-11-13T22:06:42.291Z,11.77
2022-11-13T22:09:20.502Z,12.27
2022-11-13T22:11:48.108Z,10.20
2022-11-13T22:14:16.920Z,11.20
2022-11-13T22:16:46.634Z,11.47
2022-11-13T22:19:25.231Z,11.83
2022-11-13T22:21:55.969Z,11.77
2022-11-13T22:24:23.154Z,11.30
2022-11-13T22:26:50.956Z,12.20
2022-11-13T22:29:18.030Z,12.60
2022-11-13T22:31:47.202Z,12.43
2022-11-13T22:34:14.302Z,13.17
2022-11-13T22:36:41.737Z,13.63
2022-11-13T22:39:09.065Z,12.03
2022-11-13T22:41:36.907Z,13.17
2022-11-13T22:44:12.713Z,12.93
2022-11-13T22:46:41.288Z,13.63
2022-11-13T22:49:08.671Z,14.13
2022-11-13T22:51:39.085Z,12.80
2022-11-13T22:54:08.713Z,13.27
2022-11-13T22:56:38.318Z,13.20
2022-11-13T22:59:09.881Z,14.00
2022-11-13T23:01:38.648Z,13.27
2022-11-13T23:04:09.682Z,14.00
2022-11-13T23:06:37.515Z,14.03
2022-11-13T23:09:05.996Z,15.73
2022-11-13T23:11:39.228Z,15.03
2022-11-13T23:14:10.587Z,13.77
2022-11-13T23:16:38.315Z,14.50
2022-11-13T23:19:05.390Z,14.50
2022-11-13T23:21:32.458Z,14.90
2022-11-13T23:24:00.273Z,12.73
2022-11-13T23:26:28.610Z,13.40
2022-11-13T23:28:57.327Z,12.47
2022-11-13T23:31:24.918Z,12.57
2022-11-13T23:33:52.481Z,12.93
2022-11-13T23:36:20.878Z,13.00
2022-11-13T23:38:48.272Z,12.77
2022-11-13T23:41:15.714Z,11.90
2022-11-13T23:46:31.254Z,12.33
2022-11-13T23:48:58.276Z,11.10
2022-11-13T23:51:25.676Z,10.77
2022-11-13T23:53:53.969Z,11.03
2022-11-13T23:56:21.407Z,11.80
2022-11-13T23:58:48.665Z,12.00
